Schedule Details


Flight Number: CTN367
Departure: Alexander The Great (LWSK) at 05:45
Arrival: Franjo Tudman (LDZA) at 07:05
Route: GOSTI P92 MAVAR UY400 RETRA UL604 BOSNA UL608 KOMAR L187 TEBLI

Weather Information
LWSK 171230Z 18001KT CAVOK 25/06 Q1018 NOSIG
LDZA 171230Z VRB02KT CAVOK 21/12 Q1019 NOSIG
Schedule Frequency

Route Map